Time;durP1;ratioP1;P1;durP2;ratioP2;P2;SDS_P1;SDS_P2;PMS_P1;PMS_P2;Temp;Humidity;BMP_temperature;BMP_pressure;BME280_temperature;BME280_humidity;BME280_pressure;Samples;Min_cycle;Max_cycle;Signal;HPM_P1;HPM_P2
2022/10/23 00:01:18;;;;;;;19.30;11.82;;;13.50;99.90;;;;;;4994465;28;20049;-74
2022/10/23 00:03:44;;;;;;;21.20;12.52;;;13.50;99.90;;;;;;4990740;28;20037;-74
2022/10/23 00:06:11;;;;;;;18.00;11.45;;;13.50;99.90;;;;;;4971062;28;20050;-74
2022/10/23 00:08:37;;;;;;;17.15;11.80;;;13.50;99.90;;;;;;4970176;28;20030;-73
2022/10/23 00:11:11;;;;;;;19.65;11.52;;;13.40;99.90;;;;;;4958467;28;20034;-73
2022/10/23 00:13:37;;;;;;;18.23;12.27;;;13.40;99.90;;;;;;4986919;28;20026;-74
2022/10/23 00:16:03;;;;;;;20.52;11.73;;;13.40;99.90;;;;;;4988762;28;20462;-74
2022/10/23 00:18:30;;;;;;;19.08;11.52;;;13.30;99.90;;;;;;4994136;28;20482;-73
2022/10/23 00:20:55;;;;;;;15.27;11.32;;;13.30;99.90;;;;;;4997125;28;20053;-75
2022/10/23 00:23:21;;;;;;;20.75;11.82;;;13.30;99.90;;;;;;5000547;28;20430;-74
2022/10/23 00:25:47;;;;;;;17.25;11.60;;;13.30;99.90;;;;;;4986288;28;20023;-73
2022/10/23 00:28:13;;;;;;;22.15;11.65;;;13.30;99.90;;;;;;4993768;28;20145;-73
2022/10/23 00:30:38;;;;;;;19.80;11.82;;;13.30;99.90;;;;;;4976740;28;20026;-73
2022/10/23 00:33:04;;;;;;;17.90;11.65;;;13.20;99.90;;;;;;4990356;28;20030;-74
2022/10/23 00:35:30;;;;;;;20.65;12.00;;;13.20;99.90;;;;;;4990744;28;20185;-74
2022/10/23 00:37:56;;;;;;;16.90;11.50;;;13.20;99.90;;;;;;4989370;28;20121;-74
2022/10/23 00:40:22;;;;;;;19.85;12.52;;;13.20;99.90;;;;;;4974189;28;20517;-74
2022/10/23 00:42:47;;;;;;;17.50;12.43;;;13.20;99.90;;;;;;4975500;28;20035;-74
2022/10/23 00:45:16;;;;;;;21.42;12.32;;;13.20;99.90;;;;;;4990885;28;20037;-75
2022/10/23 00:47:42;;;;;;;19.38;11.70;;;13.20;99.90;;;;;;4990187;28;20026;-75
2022/10/23 00:50:08;;;;;;;16.33;11.98;;;13.20;99.90;;;;;;4973020;28;20026;-75
2022/10/23 00:52:38;;;;;;;18.30;11.63;;;13.10;99.90;;;;;;4979178;28;20036;-74
2022/10/23 00:55:04;;;;;;;16.50;11.00;;;13.20;99.90;;;;;;4978930;28;20026;-74
2022/10/23 00:57:30;;;;;;;17.98;12.23;;;13.10;99.90;;;;;;4960044;28;20029;-74
2022/10/23 00:59:55;;;;;;;20.92;11.98;;;13.10;99.90;;;;;;4972420;28;20033;-74
2022/10/23 01:02:21;;;;;;;19.00;12.25;;;13.10;99.90;;;;;;4993998;28;20167;-74
2022/10/23 01:04:47;;;;;;;20.52;11.93;;;13.10;99.90;;;;;;4989451;28;20061;-74
2022/10/23 01:07:30;;;;;;;20.05;12.93;;;13.10;99.90;;;;;;4960529;28;20039;-74
2022/10/23 01:10:07;;;;;;;17.65;10.90;;;13.10;99.90;;;;;;4980757;28;20027;-74
2022/10/23 01:13:13;;;;;;;15.02;11.10;;;13.10;99.90;;;;;;4991285;28;20129;-74
2022/10/23 01:15:47;;;;;;;18.85;11.63;;;13.10;99.90;;;;;;4995083;28;20033;-74
2022/10/23 01:18:26;;;;;;;22.95;11.75;;;13.10;99.90;;;;;;4987676;28;20034;-74
2022/10/23 01:21:01;;;;;;;16.58;11.63;;;13.00;99.90;;;;;;4995423;28;20542;-76
2022/10/23 01:23:57;;;;;;;21.80;12.68;;;13.10;99.90;;;;;;4992721;28;20030;-75
2022/10/23 01:26:37;;;;;;;20.35;11.23;;;13.00;99.90;;;;;;4973112;28;20077;-75
2022/10/23 01:29:09;;;;;;;20.67;11.60;;;13.00;99.90;;;;;;4979157;28;20067;-75
2022/10/23 01:31:48;;;;;;;17.65;12.52;;;13.00;99.90;;;;;;4990535;28;20490;-74
2022/10/23 01:34:21;;;;;;;16.52;11.98;;;13.00;99.90;;;;;;4993382;28;20141;-75
2022/10/23 01:36:49;;;;;;;17.13;11.48;;;13.00;99.90;;;;;;4982087;28;20089;-75
2022/10/23 01:39:28;;;;;;;19.35;12.15;;;13.00;99.90;;;;;;4992528;28;20069;-74
2022/10/23 01:42:09;;;;;;;16.23;11.80;;;13.00;99.90;;;;;;4995977;28;20064;-75
2022/10/23 01:44:57;;;;;;;18.98;12.15;;;13.00;99.90;;;;;;4983158;28;20049;-75
2022/10/23 01:47:25;;;;;;;19.77;12.18;;;13.00;99.90;;;;;;4993883;28;20160;-74
2022/10/23 01:49:52;;;;;;;18.70;11.68;;;13.00;99.90;;;;;;4996092;28;20033;-75
2022/10/23 01:52:19;;;;;;;17.20;11.70;;;13.00;99.90;;;;;;4990387;28;20038;-75
2022/10/23 01:54:48;;;;;;;22.50;12.50;;;13.00;99.90;;;;;;4992039;28;20062;-74
2022/10/23 01:57:17;;;;;;;20.23;12.40;;;13.00;99.90;;;;;;4977437;28;20034;-75
2022/10/23 01:59:50;;;;;;;21.58;13.10;;;12.90;99.90;;;;;;4974028;28;20383;-74
2022/10/23 02:02:19;;;;;;;18.98;12.43;;;12.90;99.90;;;;;;4998890;28;20057;-74
2022/10/23 02:04:52;;;;;;;17.42;12.20;;;12.90;99.90;;;;;;5001220;28;20029;-74
2022/10/23 02:07:18;;;;;;;20.23;12.13;;;12.90;99.90;;;;;;4992082;28;20526;-74
2022/10/23 02:09:43;;;;;;;20.60;12.50;;;12.90;99.90;;;;;;4988717;28;20086;-74
2022/10/23 02:12:18;;;;;;;18.02;12.57;;;12.90;99.90;;;;;;4993338;28;20041;-75
2022/10/23 02:14:57;;;;;;;20.00;12.93;;;12.90;99.90;;;;;;4993093;28;20029;-75
2022/10/23 02:17:39;;;;;;;17.45;12.15;;;12.90;99.90;;;;;;4990756;28;20042;-75
2022/10/23 02:20:14;;;;;;;23.27;12.98;;;12.80;99.90;;;;;;4996946;28;20161;-74
2022/10/23 02:22:44;;;;;;;19.38;12.00;;;12.80;99.90;;;;;;4973385;28;20028;-75
2022/10/23 02:25:19;;;;;;;18.73;11.75;;;12.80;99.90;;;;;;4995119;28;20038;-75
2022/10/23 02:27:49;;;;;;;17.63;11.95;;;12.80;99.90;;;;;;4990951;28;20137;-75
2022/10/23 02:30:16;;;;;;;21.98;11.75;;;12.80;99.90;;;;;;4996055;28;20123;-75
2022/10/23 02:32:48;;;;;;;21.38;12.52;;;12.80;99.90;;;;;;4994754;28;20033;-74
2022/10/23 02:35:16;;;;;;;25.40;13.73;;;12.80;99.90;;;;;;4961372;28;20755;-74
2022/10/23 02:37:42;;;;;;;23.98;13.57;;;12.80;99.90;;;;;;4994542;28;20029;-74
2022/10/23 02:40:10;;;;;;;19.98;12.57;;;12.80;99.90;;;;;;5007689;28;20570;-75
2022/10/23 02:42:41;;;;;;;19.60;13.35;;;12.80;99.90;;;;;;5003227;28;20394;-75
2022/10/23 02:45:43;;;;;;;20.52;12.95;;;12.80;99.90;;;;;;4999524;28;20032;-74
2022/10/23 02:48:16;;;;;;;;;;;12.70;99.90;;;;;;4990325;28;20478;-74
2022/10/23 02:51:13;;;;;;;21.60;12.25;;;12.70;99.90;;;;;;4974730;28;20047;-74
2022/10/23 02:53:54;;;;;;;20.83;12.48;;;12.70;99.90;;;;;;4984749;28;20034;-75
2022/10/23 02:56:39;;;;;;;17.38;12.07;;;12.70;99.90;;;;;;4987658;28;20125;-74
2022/10/23 02:59:14;;;;;;;20.80;12.65;;;12.70;99.90;;;;;;4965119;28;20042;-74
2022/10/23 03:01:49;;;;;;;20.65;12.55;;;12.70;99.90;;;;;;4994999;28;20469;-74
2022/10/23 03:04:17;;;;;;;22.83;12.60;;;12.60;99.90;;;;;;4979800;28;20271;-74
2022/10/23 03:06:43;;;;;;;25.05;13.02;;;12.70;99.90;;;;;;4987040;28;20058;-74
2022/10/23 03:09:09;;;;;;;22.85;13.30;;;12.60;99.90;;;;;;4974731;28;20081;-74
2022/10/23 03:11:35;;;;;;;21.30;13.10;;;12.70;99.90;;;;;;4978593;28;20089;-74
2022/10/23 03:14:01;;;;;;;24.30;13.10;;;12.70;99.90;;;;;;4977957;28;20465;-74
2022/10/23 03:16:27;;;;;;;23.90;14.20;;;12.70;99.90;;;;;;4989515;28;20491;-74
2022/10/23 03:18:53;;;;;;;20.65;12.57;;;12.60;99.90;;;;;;4991726;28;20064;-74
2022/10/23 03:21:20;;;;;;;22.50;13.95;;;12.60;99.90;;;;;;4990457;28;20090;-75
2022/10/23 03:23:46;;;;;;;29.10;14.25;;;12.60;99.90;;;;;;4995629;28;20030;-74
2022/10/23 03:26:12;;;;;;;24.85;13.93;;;12.60;99.90;;;;;;4971660;28;20062;-74
2022/10/23 03:28:37;;;;;;;20.20;13.02;;;12.60;99.90;;;;;;4974837;28;20026;-74
2022/10/23 03:31:04;;;;;;;20.90;13.77;;;12.50;99.90;;;;;;4997629;28;20065;-74
2022/10/23 03:33:30;;;;;;;22.85;14.63;;;12.50;99.90;;;;;;4997543;28;20101;-74
2022/10/23 03:35:56;;;;;;;23.08;14.20;;;12.50;99.90;;;;;;4971273;28;20030;-74
2022/10/23 03:38:21;;;;;;;24.85;13.55;;;12.50;99.90;;;;;;4996179;28;20096;-74
2022/10/23 03:40:47;;;;;;;22.70;12.80;;;12.50;99.90;;;;;;4998105;28;20117;-74
2022/10/23 03:43:13;;;;;;;22.45;13.57;;;12.40;99.90;;;;;;4980541;28;20054;-75
2022/10/23 03:45:39;;;;;;;24.33;12.82;;;12.40;99.90;;;;;;4973969;28;20018;-74
2022/10/23 03:48:06;;;;;;;19.80;14.05;;;12.40;99.90;;;;;;4976203;28;20033;-75
2022/10/23 03:50:32;;;;;;;25.13;12.65;;;12.40;99.90;;;;;;4975839;28;20057;-74
2022/10/23 03:52:58;;;;;;;22.88;12.48;;;12.40;99.90;;;;;;4992564;28;20450;-75
2022/10/23 03:55:25;;;;;;;19.08;12.15;;;12.40;99.90;;;;;;4963745;28;20038;-75
2022/10/23 03:57:53;;;;;;;18.25;11.88;;;12.40;99.90;;;;;;4989925;28;20061;-74
2022/10/23 04:00:19;;;;;;;19.05;12.73;;;12.40;99.90;;;;;;4991055;28;20026;-75
2022/10/23 04:02:45;;;;;;;20.15;12.07;;;12.40;99.90;;;;;;4975497;28;20026;-74
2022/10/23 04:05:11;;;;;;;23.40;12.65;;;12.40;99.90;;;;;;4972150;28;20101;-75
2022/10/23 04:07:36;;;;;;;20.40;11.88;;;12.30;99.90;;;;;;4991161;28;20034;-74
2022/10/23 04:10:04;;;;;;;19.80;12.45;;;12.30;99.90;;;;;;4990822;28;20042;-74
2022/10/23 04:12:29;;;;;;;28.80;14.50;;;12.30;99.90;;;;;;4991814;28;20517;-74
2022/10/23 04:14:55;;;;;;;21.35;12.75;;;12.20;99.90;;;;;;4994287;28;20026;-75
2022/10/23 04:17:21;;;;;;;24.85;14.48;;;12.20;99.90;;;;;;4991546;28;20037;-75
2022/10/23 04:19:46;;;;;;;21.60;13.07;;;12.20;99.90;;;;;;4989485;28;20058;-74
2022/10/23 04:22:12;;;;;;;19.80;12.55;;;12.20;99.90;;;;;;4999238;28;20033;-74
2022/10/23 04:24:42;;;;;;;20.95;12.43;;;12.20;99.90;;;;;;4999009;28;20034;-74
2022/10/23 04:27:08;;;;;;;21.20;12.02;;;12.20;99.90;;;;;;4978649;28;20029;-74
2022/10/23 04:29:34;;;;;;;19.58;12.80;;;12.20;99.90;;;;;;4992878;28;20030;-74
2022/10/23 04:32:00;;;;;;;25.00;13.73;;;12.20;99.90;;;;;;4973822;28;20023;-74
2022/10/23 04:34:25;;;;;;;19.25;13.15;;;12.20;99.90;;;;;;4988055;28;20410;-74
2022/10/23 04:36:51;;;;;;;19.20;11.80;;;12.10;99.90;;;;;;4999122;28;20037;-74
2022/10/23 04:39:18;;;;;;;21.73;12.45;;;12.10;99.90;;;;;;4994500;28;20034;-74
2022/10/23 04:41:44;;;;;;;20.77;13.10;;;12.10;99.90;;;;;;4993695;28;20067;-74
2022/10/23 04:44:09;;;;;;;20.05;12.70;;;12.10;99.90;;;;;;4996982;28;20050;-75
2022/10/23 04:46:35;;;;;;;20.58;11.80;;;12.10;99.90;;;;;;4991837;28;20080;-74
2022/10/23 04:49:01;;;;;;;21.30;12.30;;;12.10;99.90;;;;;;5000586;28;20041;-74
2022/10/23 04:51:27;;;;;;;25.52;12.52;;;12.00;99.90;;;;;;5000081;28;20030;-74
2022/10/23 04:53:52;;;;;;;22.25;12.40;;;12.10;99.90;;;;;;4983842;28;20141;-74
2022/10/23 04:56:18;;;;;;;20.15;11.82;;;12.00;99.90;;;;;;4999932;28;20125;-74
2022/10/23 04:58:44;;;;;;;19.25;11.60;;;12.10;99.90;;;;;;4995668;28;20046;-74
2022/10/23 05:01:10;;;;;;;19.33;11.30;;;12.10;99.90;;;;;;4996109;28;20034;-75
2022/10/23 05:03:37;;;;;;;19.17;10.73;;;12.00;99.90;;;;;;4987655;28;20475;-74
2022/10/23 05:06:03;;;;;;;17.50;10.85;;;12.10;99.90;;;;;;4984552;28;21435;-74
2022/10/23 05:08:29;;;;;;;17.58;10.25;;;12.00;99.90;;;;;;4963888;28;20022;-75
2022/10/23 05:10:55;;;;;;;20.73;11.60;;;12.00;99.90;;;;;;4991202;28;20486;-75
2022/10/23 05:13:21;;;;;;;17.52;11.15;;;12.00;99.90;;;;;;4984889;28;20049;-75
2022/10/23 05:15:49;;;;;;;18.17;10.65;;;12.00;99.90;;;;;;4994057;28;20053;-74
2022/10/23 05:18:45;;;;;;;16.90;10.35;;;12.00;99.90;;;;;;4994521;28;20027;-74
2022/10/23 05:21:18;;;;;;;18.05;9.75;;;12.00;99.90;;;;;;4973819;28;20042;-75
2022/10/23 05:23:45;;;;;;;16.15;9.80;;;12.00;99.90;;;;;;4997982;28;20084;-74
2022/10/23 05:26:11;;;;;;;15.70;9.68;;;11.90;99.90;;;;;;4998766;28;20030;-75
2022/10/23 05:28:36;;;;;;;14.95;9.52;;;11.90;99.90;;;;;;4980094;28;20092;-74
2022/10/23 05:31:04;;;;;;;26.38;10.70;;;11.90;99.90;;;;;;4975039;28;20442;-74
2022/10/23 05:33:31;;;;;;;18.50;9.35;;;11.90;99.90;;;;;;4996858;28;20517;-74
2022/10/23 05:35:57;;;;;;;18.02;9.35;;;11.90;99.90;;;;;;4980570;28;20034;-74
2022/10/23 05:38:25;;;;;;;17.08;9.50;;;11.80;99.90;;;;;;4980145;28;20030;-75
2022/10/23 05:40:52;;;;;;;15.18;9.23;;;11.80;99.90;;;;;;4996930;28;20037;-74
2022/10/23 05:43:18;;;;;;;17.17;9.23;;;11.80;99.90;;;;;;4994798;28;20049;-74
2022/10/23 05:45:43;;;;;;;14.13;9.45;;;11.80;99.90;;;;;;4974164;28;20057;-74
2022/10/23 05:48:09;;;;;;;14.45;9.40;;;11.80;99.90;;;;;;4987838;28;20034;-74
2022/10/23 05:50:36;;;;;;;14.07;8.98;;;11.70;99.90;;;;;;4973039;28;20041;-74
2022/10/23 05:53:01;;;;;;;14.82;9.38;;;11.70;99.90;;;;;;4990784;28;20410;-74
2022/10/23 05:55:27;;;;;;;14.45;9.25;;;11.70;99.90;;;;;;4998517;28;20057;-75
2022/10/23 05:57:53;;;;;;;15.88;9.40;;;11.70;99.90;;;;;;4978754;28;20097;-75
2022/10/23 06:00:20;;;;;;;14.35;9.10;;;11.70;99.90;;;;;;4992795;28;20014;-74
2022/10/23 06:02:45;;;;;;;19.15;10.05;;;11.70;99.90;;;;;;4993575;28;20439;-74
2022/10/23 06:05:11;;;;;;;17.35;9.35;;;11.70;99.90;;;;;;4989763;28;20037;-75
2022/10/23 06:07:37;;;;;;;15.88;9.77;;;11.70;99.90;;;;;;4980827;28;20022;-74
2022/10/23 06:10:04;;;;;;;16.58;9.93;;;11.70;99.90;;;;;;5000416;28;20087;-75
2022/10/23 06:12:30;;;;;;;13.60;9.48;;;11.70;99.90;;;;;;4997803;28;20034;-74
2022/10/23 06:14:56;;;;;;;14.40;8.95;;;11.60;99.90;;;;;;4994872;28;20326;-74
2022/10/23 06:17:21;;;;;;;16.08;9.05;;;11.60;99.90;;;;;;4974560;28;20120;-74
2022/10/23 06:19:47;;;;;;;15.90;9.70;;;11.60;99.90;;;;;;4996878;28;20065;-74
2022/10/23 06:22:13;;;;;;;16.23;8.77;;;11.70;99.90;;;;;;4992866;28;20026;-74
2022/10/23 06:24:40;;;;;;;15.57;9.40;;;11.60;99.90;;;;;;4992034;28;20023;-75
2022/10/23 06:27:06;;;;;;;13.55;8.55;;;11.60;99.90;;;;;;4997875;28;20505;-74
2022/10/23 06:29:33;;;;;;;12.13;8.75;;;11.70;99.90;;;;;;4999108;28;20018;-74
2022/10/23 06:31:59;;;;;;;12.63;8.43;;;11.70;99.90;;;;;;4985907;28;20022;-74
2022/10/23 06:34:25;;;;;;;16.13;9.27;;;11.70;99.90;;;;;;4973637;28;20023;-74
2022/10/23 06:36:50;;;;;;;15.50;9.02;;;11.70;99.90;;;;;;4997714;28;20029;-74
2022/10/23 06:39:16;;;;;;;15.00;9.65;;;11.70;99.90;;;;;;4990726;28;20789;-74
2022/10/23 06:41:43;;;;;;;13.07;9.35;;;11.70;99.90;;;;;;4983678;28;20022;-74
2022/10/23 06:44:10;;;;;;;17.67;9.43;;;11.70;99.90;;;;;;4994323;28;20030;-74
2022/10/23 06:46:36;;;;;;;17.83;9.43;;;11.60;99.90;;;;;;4993584;28;20101;-74
2022/10/23 06:49:02;;;;;;;15.57;9.00;;;11.60;99.90;;;;;;4988400;28;20503;-74
2022/10/23 06:51:28;;;;;;;16.05;8.63;;;11.80;99.90;;;;;;4978270;28;20026;-74
2022/10/23 06:53:55;;;;;;;10.57;7.82;;;11.70;99.90;;;;;;4993988;28;20030;-74
2022/10/23 06:56:27;;;;;;;14.88;8.50;;;11.70;99.90;;;;;;4989029;28;20030;-75
2022/10/23 06:58:53;;;;;;;14.48;8.10;;;11.70;99.90;;;;;;4978705;28;20513;-74
2022/10/23 07:01:19;;;;;;;15.38;7.97;;;11.70;99.90;;;;;;4970164;28;20026;-74
2022/10/23 07:03:47;;;;;;;16.75;8.48;;;11.70;99.90;;;;;;4991546;28;20034;-74
2022/10/23 07:06:13;;;;;;;12.27;8.13;;;11.70;99.90;;;;;;4997538;28;20542;-74
2022/10/23 07:08:39;;;;;;;15.98;9.13;;;11.70;99.90;;;;;;4995219;28;20049;-74
2022/10/23 07:11:10;;;;;;;14.18;9.30;;;11.70;99.90;;;;;;4995265;28;20355;-74
2022/10/23 07:13:37;;;;;;;21.33;10.13;;;11.70;99.90;;;;;;4989216;28;20032;-74
2022/10/23 07:16:15;;;;;;;12.43;9.02;;;11.70;99.90;;;;;;4993702;28;20030;-74
2022/10/23 07:18:41;;;;;;;15.55;9.10;;;11.80;99.90;;;;;;4994647;28;20145;-74
2022/10/23 07:21:08;;;;;;;14.90;9.90;;;11.80;99.90;;;;;;4984314;28;20109;-74
2022/10/23 07:23:34;;;;;;;19.85;7.30;;;11.80;99.90;;;;;;4943669;28;20028;-74
2022/10/23 07:26:18;;;;;;;15.60;10.35;;;12.10;99.90;;;;;;4974675;28;20045;-74
2022/10/23 07:28:46;;;;;;;16.98;9.50;;;13.00;99.90;;;;;;4972192;28;20026;-74
2022/10/23 07:31:13;;;;;;;16.40;10.77;;;12.70;99.90;;;;;;4989727;28;20482;-74
2022/10/23 07:33:39;;;;;;;14.90;8.75;;;12.50;99.90;;;;;;4987856;28;20057;-72
2022/10/23 07:36:06;;;;;;;17.33;10.68;;;12.40;99.90;;;;;;4969181;28;20050;-74
2022/10/23 07:38:33;;;;;;;13.90;9.13;;;12.20;99.90;;;;;;4972712;28;20022;-74
2022/10/23 07:40:59;;;;;;;15.75;9.93;;;12.20;99.90;;;;;;4995661;28;20023;-74
2022/10/23 07:43:25;;;;;;;16.13;8.93;;;12.10;99.90;;;;;;4985436;28;20070;-73
2022/10/23 07:45:52;;;;;;;13.73;9.90;;;12.10;99.90;;;;;;4980604;28;20077;-74
2022/10/23 07:48:19;;;;;;;14.20;10.05;;;12.10;99.90;;;;;;4984413;28;20034;-74
2022/10/23 07:50:45;;;;;;;15.15;9.63;;;12.20;99.90;;;;;;4988090;28;20085;-74
2022/10/23 07:53:20;;;;;;;19.02;10.20;;;12.20;99.90;;;;;;4991123;28;20030;-76
2022/10/23 07:55:54;;;;;;;11.88;9.10;;;12.20;99.90;;;;;;4986744;28;21855;-74
2022/10/23 07:58:20;;;;;;;14.48;9.65;;;12.20;99.90;;;;;;4992813;28;20509;-75
2022/10/23 08:00:52;;;;;;;13.75;9.77;;;12.30;99.90;;;;;;4984611;28;20031;-74
2022/10/23 08:03:19;;;;;;;11.57;8.35;;;12.40;99.90;;;;;;4986418;28;20045;-75
2022/10/23 08:05:45;;;;;;;16.33;9.23;;;12.40;99.90;;;;;;4987149;28;20523;-74
2022/10/23 08:08:10;;;;;;;13.18;9.00;;;12.40;99.90;;;;;;4990608;28;20034;-74
2022/10/23 08:10:36;;;;;;;12.98;9.00;;;12.50;99.90;;;;;;4984562;28;20038;-75
2022/10/23 08:13:02;;;;;;;17.00;10.35;;;12.50;99.90;;;;;;4974098;28;20026;-74
2022/10/23 08:15:27;;;;;;;12.15;8.70;;;12.50;99.90;;;;;;4988295;28;20026;-74
2022/10/23 08:17:53;;;;;;;15.60;9.32;;;12.60;99.90;;;;;;4989297;28;20038;-75
2022/10/23 08:20:19;;;;;;;15.00;8.93;;;12.60;99.90;;;;;;4989005;28;20717;-74
2022/10/23 08:22:44;;;;;;;14.07;9.82;;;12.70;99.90;;;;;;4985935;28;20057;-74
2022/10/23 08:25:10;;;;;;;15.43;9.73;;;12.80;99.90;;;;;;4983614;28;20498;-74
2022/10/23 08:27:37;;;;;;;12.63;8.00;;;12.80;99.90;;;;;;4971971;28;20036;-74
2022/10/23 08:30:03;;;;;;;13.32;8.52;;;12.90;99.90;;;;;;4990069;28;20045;-74
2022/10/23 08:32:29;;;;;;;10.73;7.72;;;13.00;99.90;;;;;;4990439;28;20394;-74
2022/10/23 08:34:55;;;;;;;10.75;7.55;;;13.10;99.90;;;;;;4975124;28;20052;-74
2022/10/23 08:37:21;;;;;;;9.82;7.38;;;13.20;99.90;;;;;;4990601;28;20045;-74
2022/10/23 08:39:47;;;;;;;11.02;6.85;;;13.30;99.90;;;;;;4975868;28;20387;-74
2022/10/23 08:42:24;;;;;;;9.80;6.90;;;13.30;99.90;;;;;;4983522;28;20030;-74
2022/10/23 08:45:12;;;;;;;11.85;6.80;;;13.40;99.90;;;;;;4987846;28;20085;-74
2022/10/23 08:47:42;;;;;;;10.55;6.40;;;13.40;99.90;;;;;;4975646;28;20050;-74
2022/10/23 08:50:24;;;;;;;13.27;6.43;;;13.50;99.90;;;;;;4982253;28;20026;-74
2022/10/23 08:53:02;;;;;;;9.82;5.82;;;13.50;99.90;;;;;;4975395;28;20050;-74
2022/10/23 08:55:58;;;;;;;8.43;5.63;;;13.50;99.90;;;;;;4989138;28;20041;-74
2022/10/23 08:58:47;;;;;;;9.43;6.25;;;13.50;99.90;;;;;;4987611;28;20149;-74
2022/10/23 09:01:39;;;;;;;12.80;5.38;;;13.50;99.90;;;;;;4990247;28;20081;-73
2022/10/23 09:04:05;;;;;;;10.55;5.57;;;13.60;99.90;;;;;;4993806;28;20022;-75
2022/10/23 09:06:41;;;;;;;9.13;5.15;;;13.60;99.90;;;;;;4973489;28;20033;-75
2022/10/23 09:09:28;;;;;;;9.68;5.28;;;13.60;99.90;;;;;;4982302;28;20089;-74
2022/10/23 09:12:05;;;;;;;9.32;5.03;;;13.70;99.90;;;;;;4973212;28;20146;-75
2022/10/23 09:14:31;;;;;;;9.00;5.03;;;13.70;99.90;;;;;;4988510;28;20048;-75
2022/10/23 09:17:26;;;;;;;8.57;4.97;;;13.70;99.90;;;;;;4978329;28;20022;-75
2022/10/23 09:20:26;;;;;;;15.00;5.72;;;13.80;99.90;;;;;;4980989;28;20090;-75
2022/10/23 09:22:56;;;;;;;9.07;5.38;;;13.80;99.90;;;;;;4973081;28;20088;-74
2022/10/23 09:25:25;;;;;;;12.32;5.25;;;13.80;99.90;;;;;;4994540;28;20542;-75
2022/10/23 09:27:54;;;;;;;11.20;5.57;;;13.80;99.90;;;;;;4990221;28;20037;-74
2022/10/23 09:30:38;;;;;;;12.23;5.75;;;13.80;99.90;;;;;;4992090;28;20568;-74
2022/10/23 09:33:18;;;;;;;10.57;5.07;;;13.90;99.90;;;;;;4962068;28;20490;-75
2022/10/23 09:36:12;;;;;;;10.80;5.35;;;13.90;99.90;;;;;;4996309;28;20033;-73
2022/10/23 09:38:48;;;;;;;9.95;5.05;;;13.90;99.90;;;;;;4988735;28;20049;-74
2022/10/23 09:41:25;;;;;;;8.90;5.15;;;14.00;99.90;;;;;;4988849;28;20093;-74
2022/10/23 09:44:06;;;;;;;8.07;5.20;;;14.10;99.90;;;;;;4986887;28;20726;-75
2022/10/23 09:46:43;;;;;;;10.48;4.63;;;14.20;99.90;;;;;;4993480;28;20053;-75
2022/10/23 09:49:30;;;;;;;11.45;5.53;;;14.30;99.90;;;;;;4980301;28;20043;-73
2022/10/23 09:52:02;;;;;;;9.57;5.18;;;14.20;99.90;;;;;;4994336;28;20085;-74
2022/10/23 09:54:33;;;;;;;9.23;6.00;;;14.20;99.90;;;;;;4984283;28;20407;-77
2022/10/23 09:57:22;;;;;;;12.60;5.85;;;14.20;99.90;;;;;;4990087;28;20125;-74
2022/10/23 10:00:05;;;;;;;9.30;5.15;;;14.20;99.90;;;;;;4991743;28;20042;-73
2022/10/23 10:02:35;;;;;;;9.45;4.93;;;14.30;99.90;;;;;;4992376;28;20105;-74
2022/10/23 10:05:26;;;;;;;9.52;5.50;;;14.30;99.90;;;;;;4991112;28;20026;-75
2022/10/23 10:08:04;;;;;;;13.35;5.97;;;14.40;99.90;;;;;;4987806;28;20541;-74
2022/10/23 10:10:38;;;;;;;9.40;4.82;;;14.50;99.90;;;;;;4994305;28;20030;-76
2022/10/23 10:13:37;;;;;;;10.85;5.25;;;14.60;99.90;;;;;;4989658;28;20074;-74
2022/10/23 10:16:10;;;;;;;9.60;5.15;;;14.80;99.90;;;;;;4976936;28;20054;-77
2022/10/23 10:18:49;;;;;;;9.63;4.43;;;14.90;99.90;;;;;;4976966;28;20030;-79
2022/10/23 10:21:28;;;;;;;7.57;4.55;;;14.90;99.90;;;;;;4979432;28;20038;-73
2022/10/23 10:24:01;;;;;;;9.30;4.95;;;15.10;99.90;;;;;;4994436;28;20031;-74
2022/10/23 10:26:44;;;;;;;11.00;4.68;;;15.00;99.90;;;;;;4986817;28;20033;-76
2022/10/23 10:29:39;;;;;;;6.90;4.55;;;14.90;99.90;;;;;;4991159;28;20034;-73
2022/10/23 10:32:36;;;;;;;11.93;5.00;;;15.00;99.90;;;;;;4979370;28;20630;-74
2022/10/23 10:35:22;;;;;;;17.20;4.72;;;15.00;99.90;;;;;;4975264;28;20030;-73
2022/10/23 10:37:48;;;;;;;11.20;5.15;;;15.10;99.90;;;;;;4976979;28;20058;-73
2022/10/23 10:40:23;;;;;;;11.38;5.25;;;15.10;99.90;;;;;;4974472;28;20447;-73
2022/10/23 10:42:58;;;;;;;9.38;4.70;;;15.20;99.90;;;;;;4994087;28;20018;-75
2022/10/23 10:45:40;;;;;;;8.38;4.70;;;15.10;99.90;;;;;;4992014;28;20520;-76
2022/10/23 10:48:24;;;;;;;9.13;4.60;;;15.20;99.90;;;;;;4975529;28;20093;-76
2022/10/23 10:51:15;;;;;;;7.05;4.00;;;15.40;99.90;;;;;;4992933;28;20055;-75
2022/10/23 10:54:13;;;;;;;9.52;3.95;;;15.50;99.90;;;;;;4987769;28;20030;-74
2022/10/23 10:56:42;;;;;;;15.40;4.40;;;15.60;99.90;;;;;;4975526;28;20097;-76
2022/10/23 10:59:18;;;;;;;8.77;4.07;;;15.60;99.90;;;;;;4994196;28;20034;-75
2022/10/23 11:02:02;;;;;;;11.88;4.05;;;15.60;99.90;;;;;;4978071;28;20041;-75
2022/10/23 11:04:37;;;;;;;8.82;4.47;;;15.50;99.90;;;;;;4988499;28;20141;-74
2022/10/23 11:07:07;;;;;;;7.47;4.20;;;15.50;99.90;;;;;;4981368;28;20026;-74
2022/10/23 11:09:34;;;;;;;7.38;4.45;;;15.50;99.90;;;;;;4994249;28;20042;-75
2022/10/23 11:12:01;;;;;;;11.55;4.80;;;15.60;99.90;;;;;;4991072;28;20450;-75
2022/10/23 11:14:31;;;;;;;10.60;4.35;;;15.60;99.90;;;;;;4991303;28;20050;-72
2022/10/23 11:17:08;;;;;;;5.97;3.83;;;15.50;99.90;;;;;;4992294;28;20049;-73
2022/10/23 11:19:40;;;;;;;9.52;4.82;;;15.50;99.90;;;;;;4990018;28;20034;-72
2022/10/23 11:22:37;;;;;;;10.68;4.60;;;15.60;99.90;;;;;;4985876;28;20034;-73
2022/10/23 11:25:30;;;;;;;8.32;4.65;;;15.60;99.90;;;;;;4995584;28;20065;-73
2022/10/23 11:28:30;;;;;;;9.70;4.60;;;15.60;99.90;;;;;;4969535;28;20047;-74
2022/10/23 11:31:04;;;;;;;9.48;4.70;;;15.60;99.90;;;;;;4989545;28;20818;-73
2022/10/23 11:33:54;;;;;;;14.13;5.22;;;15.70;99.90;;;;;;4977229;28;20026;-73
2022/10/23 11:36:44;;;;;;;10.80;4.50;;;15.80;99.90;;;;;;4977670;28;20030;-73
2022/10/23 11:39:28;;;;;;;11.48;4.65;;;15.90;99.90;;;;;;4991599;28;20026;-73
2022/10/23 11:41:57;;;;;;;8.05;4.70;;;16.00;99.90;;;;;;4992311;28;20124;-73
2022/10/23 11:44:37;;;;;;;13.30;5.05;;;16.10;99.90;;;;;;4992501;28;20026;-74
2022/10/23 11:47:25;;;;;;;8.73;4.32;;;16.10;99.90;;;;;;4989453;28;20069;-74
2022/10/23 11:50:12;;;;;;;9.02;4.20;;;16.10;99.90;;;;;;4988679;28;20019;-75
2022/10/23 11:53:04;;;;;;;7.82;3.92;;;16.10;99.90;;;;;;4992181;28;20482;-75
2022/10/23 11:55:30;;;;;;;;;;;16.20;99.90;;;;;;5001567;28;20437;-73
2022/10/23 11:58:21;;;;;;;10.40;3.92;;;16.20;99.90;;;;;;4988010;28;19929;-74
2022/10/23 12:00:55;;;;;;;;;;;16.10;99.90;;;;;;4986347;28;20518;-75
2022/10/23 12:03:29;;;;;;;667.13;424.60;;;16.00;99.90;;;;;;4961483;28;19961;-72
2022/10/23 12:06:05;;;;;;;177.95;133.25;;;16.00;99.90;;;;;;4996003;28;20058;-74
2022/10/23 12:08:34;;;;;;;50.70;36.75;;;16.20;99.90;;;;;;4991639;28;20038;-73
2022/10/23 12:11:01;;;;;;;18.13;10.45;;;16.10;99.90;;;;;;4987444;28;20030;-74
2022/10/23 12:13:36;;;;;;;8.85;4.68;;;16.20;99.90;;;;;;4973934;28;20081;-72
2022/10/23 12:16:09;;;;;;;9.10;3.78;;;16.20;99.90;;;;;;4992107;28;20491;-74
2022/10/23 12:18:46;;;;;;;8.27;3.80;;;16.20;99.90;;;;;;4973893;28;20498;-75
2022/10/23 12:21:20;;;;;;;11.23;3.45;;;16.20;99.90;;;;;;4972479;28;20019;-75
2022/10/23 12:24:24;;;;;;;8.98;3.90;;;16.30;99.90;;;;;;4987247;28;20032;-74
2022/10/23 12:27:25;;;;;;;9.90;4.40;;;16.20;99.90;;;;;;4952656;28;20042;-74
2022/10/23 12:30:11;;;;;;;7.53;3.75;;;16.30;99.90;;;;;;4951148;28;20031;-74
2022/10/23 12:33:10;;;;;;;12.82;4.90;;;16.30;99.90;;;;;;4987159;28;20037;-75
2022/10/23 12:36:03;;;;;;;12.73;5.57;;;16.20;99.90;;;;;;4988699;28;20034;-77
2022/10/23 12:38:29;;;;;;;12.13;5.57;;;16.20;99.90;;;;;;4976745;28;20037;-76
2022/10/23 12:41:11;;;;;;;12.07;7.00;;;16.20;99.90;;;;;;4990877;28;20026;-75
2022/10/23 12:43:40;;;;;;;12.48;4.95;;;16.20;99.90;;;;;;4961114;28;20026;-75
2022/10/23 12:46:32;;;;;;;9.73;4.70;;;16.20;99.90;;;;;;4999384;28;20058;-77
2022/10/23 12:49:02;;;;;;;9.88;4.07;;;16.20;99.90;;;;;;4990984;28;20030;-76
2022/10/23 12:51:32;;;;;;;11.63;4.60;;;16.20;99.90;;;;;;4971771;28;20116;-77
2022/10/23 12:53:58;;;;;;;7.43;4.28;;;16.20;99.90;;;;;;4991628;28;20026;-78
2022/10/23 12:56:34;;;;;;;9.57;4.35;;;16.10;99.90;;;;;;4977949;28;20031;-81
2022/10/23 12:59:00;;;;;;;8.98;4.47;;;16.20;99.90;;;;;;4975990;28;20034;-80
2022/10/23 13:01:28;;;;;;;11.80;5.43;;;16.20;99.90;;;;;;4996482;28;20445;-77